Time;durP1;ratioP1;P1;durP2;ratioP2;P2;SDS_P1;SDS_P2;PMS_P1;PMS_P2;Temp;Humidity;BMP_temperature;BMP_pressure;BME280_temperature;BME280_humidity;BME280_pressure;Samples;Min_cycle;Max_cycle;Signal;HPM_P1;HPM_P2
2023/05/27 00:00:14;;;;;;;6.93;5.47;;;;;;;26.41;42.40;99978.47;4249665;33;33700;-64
2023/05/27 00:02:42;;;;;;;7.60;5.95;;;;;;;26.40;42.32;99974.09;4246109;33;35126;-64
2023/05/27 00:05:10;;;;;;;6.53;5.40;;;;;;;26.40;42.36;99974.09;4246519;33;33598;-64
2023/05/27 00:07:37;;;;;;;9.27;5.45;;;;;;;26.40;42.25;99973.25;4246324;33;34953;-64
2023/05/27 00:10:05;;;;;;;7.43;5.72;;;;;;;26.40;42.13;99967.78;4246088;33;33917;-64
2023/05/27 00:12:33;;;;;;;7.30;5.78;;;;;;;26.39;42.09;99964.22;4246220;33;34377;-64
2023/05/27 00:15:00;;;;;;;8.75;5.40;;;;;;;26.39;42.08;99958.75;4246138;33;34438;-64
2023/05/27 00:17:30;;;;;;;8.00;5.60;;;;;;;26.38;42.09;99959.78;4232950;33;33891;-64
2023/05/27 00:20:04;;;;;;;7.37;5.37;;;;;;;26.38;42.11;99958.97;4246202;33;33747;-64
2023/05/27 00:22:32;;;;;;;9.30;5.93;;;;;;;26.38;42.10;99958.97;4246085;33;34672;-64
2023/05/27 00:24:59;;;;;;;9.05;6.15;;;;;;;26.38;42.17;99964.44;4246238;33;34005;-64
2023/05/27 00:27:27;;;;;;;6.50;5.55;;;;;;;26.36;42.20;99958.41;4246157;33;33953;-63
2023/05/27 00:29:55;;;;;;;8.25;5.50;;;;;;;26.36;42.16;99959.22;4253302;33;33941;-64
2023/05/27 00:32:22;;;;;;;7.93;5.20;;;;;;;26.35;42.22;99968.50;4260318;33;34555;-64
2023/05/27 00:34:50;;;;;;;7.87;5.35;;;;;;;26.35;42.23;99963.03;4260150;33;34323;-64
2023/05/27 00:37:17;;;;;;;8.70;5.60;;;;;;;26.35;42.19;99960.31;4260168;33;34028;-63
2023/05/27 00:39:45;;;;;;;9.68;5.87;;;;;;;26.35;42.15;99954.00;4260212;33;34000;-64
2023/05/27 00:42:13;;;;;;;9.05;6.03;;;;;;;26.34;42.17;99955.06;4260233;33;34109;-64
2023/05/27 00:44:40;;;;;;;8.93;6.20;;;;;;;26.32;42.25;99955.31;4260151;33;33701;-64
2023/05/27 00:47:08;;;;;;;9.27;5.20;;;;;;;26.33;42.21;99948.75;4260177;33;33476;-64
2023/05/27 00:49:35;;;;;;;7.80;5.80;;;;;;;26.33;42.27;99956.97;4260162;33;34685;-64
2023/05/27 00:52:04;;;;;;;7.80;5.95;;;;;;;26.33;42.26;99953.41;4260003;33;34274;-64
2023/05/27 00:54:31;;;;;;;7.30;5.40;;;;;;;26.32;42.26;99955.31;4260174;33;34373;-64
2023/05/27 00:57:01;;;;;;;8.88;5.87;;;;;;;26.32;42.28;99954.47;4247080;33;33519;-64
2023/05/27 00:59:28;;;;;;;7.57;5.55;;;;;;;26.32;42.28;99957.22;4247227;33;33903;-63
2023/05/27 01:01:56;;;;;;;10.10;5.20;;;;;;;26.32;42.27;99952.56;4260083;33;34894;-64
2023/05/27 01:04:24;;;;;;;8.27;5.37;;;;;;;26.32;42.26;99954.47;4260067;33;33706;-64
2023/05/27 01:07:02;;;;;;;7.35;5.03;;;;;;;26.30;42.30;99954.72;4258742;33;33607;-64
2023/05/27 01:09:42;;;;;;;6.82;5.30;;;;;;;26.32;42.40;99959.94;4258829;33;33599;-64
2023/05/27 01:12:14;;;;;;;6.43;5.32;;;;;;;26.32;42.45;99954.47;4260064;33;34114;-64
2023/05/27 01:14:43;;;;;;;7.53;5.62;;;;;;;26.30;42.49;99953.88;4260021;33;33462;-64
2023/05/27 01:17:11;;;;;;;6.75;5.40;;;;;;;26.30;42.52;99951.12;4260013;33;34058;-64
2023/05/27 01:19:42;;;;;;;7.10;5.47;;;;;;;26.29;42.52;99947.56;4258581;33;34156;-63
2023/05/27 01:22:13;;;;;;;8.10;5.37;;;;;;;26.30;42.49;99951.12;4260007;33;34296;-64
2023/05/27 01:24:41;;;;;;;9.55;6.00;;;;;;;26.29;42.52;99944.00;4258559;33;33454;-63
2023/05/27 01:27:11;;;;;;;7.18;5.75;;;;;;;26.30;42.47;99954.72;4259788;33;34124;-63
2023/05/27 01:29:40;;;;;;;8.02;5.93;;;;;;;26.29;42.40;99944.84;4259888;33;35649;-64
2023/05/27 01:32:08;;;;;;;6.80;5.50;;;;;;;26.31;42.43;99941.88;4258776;33;34118;-64
2023/05/27 01:34:42;;;;;;;7.20;5.45;;;;;;;26.30;42.45;99937.47;4258655;33;34562;-63
2023/05/27 01:37:09;;;;;;;7.35;5.55;;;;;;;26.30;42.36;99941.06;4258519;33;34010;-64
2023/05/27 01:39:37;;;;;;;7.32;5.47;;;;;;;26.30;42.30;99937.47;4260009;33;34180;-64
2023/05/27 01:42:06;;;;;;;7.12;5.40;;;;;;;26.30;42.27;99946.53;4246896;33;33914;-64
2023/05/27 01:44:34;;;;;;;7.47;5.90;;;;;;;26.30;42.24;99948.41;4258491;33;34408;-64
2023/05/27 01:47:02;;;;;;;7.78;6.07;;;;;;;26.31;42.25;99944.62;4246768;33;33761;-64
2023/05/27 01:49:31;;;;;;;6.65;5.40;;;;;;;26.29;42.29;99938.53;4259691;33;33941;-64
2023/05/27 01:51:59;;;;;;;8.30;6.07;;;;;;;26.29;42.29;99941.28;4258480;33;34249;-64
2023/05/27 01:54:26;;;;;;;8.50;5.82;;;;;;;26.30;42.22;99932.00;4259913;33;33537;-64
2023/05/27 01:56:54;;;;;;;7.30;5.78;;;;;;;26.28;42.19;99934.97;4259272;33;34782;-63
2023/05/27 01:59:22;;;;;;;8.25;6.37;;;;;;;26.29;42.20;99933.91;4253611;33;35049;-64
2023/05/27 02:01:49;;;;;;;10.07;6.78;;;;;;;26.29;42.20;99933.06;4244331;33;34075;-64
2023/05/27 02:04:17;;;;;;;7.30;5.75;;;;;;;26.29;42.17;99941.28;4245382;33;33374;-64
2023/05/27 02:06:45;;;;;;;8.27;6.00;;;;;;;26.29;42.21;99933.06;4245444;33;34075;-64
2023/05/27 02:09:13;;;;;;;7.93;5.55;;;;;;;26.29;42.24;99935.81;4245475;33;33656;-64
2023/05/27 02:11:59;;;;;;;8.45;6.10;;;;;;;26.28;42.20;99937.72;4245183;33;35158;-63
2023/05/27 02:14:27;;;;;;;7.12;5.62;;;;;;;26.29;42.12;99925.69;4245391;33;34439;-63
2023/05/27 02:16:55;;;;;;;7.20;6.05;;;;;;;26.27;42.15;99927.03;4245113;33;33944;-63
2023/05/27 02:19:24;;;;;;;8.82;6.15;;;;;;;26.27;42.18;99929.75;4244883;33;34745;-64
2023/05/27 02:21:52;;;;;;;7.43;5.70;;;;;;;26.26;42.17;99939.03;4246173;33;34279;-64
2023/05/27 02:24:20;;;;;;;6.93;5.57;;;;;;;26.25;42.09;99929.97;4246951;33;34501;-64
2023/05/27 02:26:48;;;;;;;8.48;6.10;;;;;;;26.26;42.08;99939.87;4246699;33;34084;-64
2023/05/27 02:29:17;;;;;;;8.68;5.57;;;;;;;26.25;42.04;99935.44;4246995;33;34167;-63
2023/05/27 02:31:45;;;;;;;7.12;5.37;;;;;;;26.25;42.01;99929.16;4246842;33;34265;-64
2023/05/27 02:34:12;;;;;;;7.40;5.50;;;;;;;26.24;41.96;99933.78;4246779;33;33430;-64
2023/05/27 02:36:42;;;;;;;10.57;5.78;;;;;;;26.24;41.96;99938.44;4246808;33;33985;-64
2023/05/27 02:39:10;;;;;;;8.57;5.70;;;;;;;26.24;41.98;99935.69;4247037;33;33918;-63
2023/05/27 02:41:38;;;;;;;9.32;6.22;;;;;;;26.24;41.93;99935.69;4246706;33;34426;-64
2023/05/27 02:44:06;;;;;;;10.45;6.45;;;;;;;26.22;42.00;99935.94;4246752;33;33827;-64
2023/05/27 02:46:34;;;;;;;9.50;7.30;;;;;;;26.22;42.01;99944.16;4246787;33;34073;-64
2023/05/27 02:49:01;;;;;;;8.50;6.37;;;;;;;26.22;42.00;99930.47;4246548;33;33946;-70
2023/05/27 02:51:29;;;;;;;9.18;6.50;;;;;;;26.22;42.02;99929.66;4246703;33;34048;-68
2023/05/27 02:53:57;;;;;;;8.02;6.03;;;;;;;26.20;42.10;99938.91;4246995;33;33877;-68
2023/05/27 02:56:26;;;;;;;11.12;6.62;;;;;;;26.22;42.15;99941.41;4246300;33;33670;-67
2023/05/27 02:58:54;;;;;;;9.60;6.87;;;;;;;26.22;42.19;99940.59;4249974;33;34348;-68
2023/05/27 03:01:22;;;;;;;8.27;6.05;;;;;;;26.22;42.21;99938.69;4260754;33;34411;-67
2023/05/27 03:03:50;;;;;;;8.35;6.03;;;;;;;26.24;42.20;99935.69;4260644;33;33729;-67
2023/05/27 03:06:18;;;;;;;7.53;5.85;;;;;;;26.23;42.22;99939.50;4260719;33;34680;-67
2023/05/27 03:08:45;;;;;;;8.05;5.90;;;;;;;26.23;42.23;99939.50;4259561;33;33974;-67
2023/05/27 03:11:13;;;;;;;9.45;6.25;;;;;;;26.24;42.23;99947.47;4260598;33;34004;-68
2023/05/27 03:13:40;;;;;;;7.65;5.80;;;;;;;26.23;42.23;99945.81;4260772;33;33656;-68
2023/05/27 03:16:08;;;;;;;7.87;6.10;;;;;;;26.24;42.22;99950.19;4261070;33;33884;-67
2023/05/27 03:18:36;;;;;;;7.75;6.05;;;;;;;26.23;42.22;99934.03;4260559;33;33930;-68
2023/05/27 03:21:03;;;;;;;8.13;6.07;;;;;;;26.23;42.22;99940.34;4260902;33;34291;-69
2023/05/27 03:23:31;;;;;;;9.27;5.78;;;;;;;26.23;42.21;99945.81;4259500;33;33563;-68
2023/05/27 03:26:00;;;;;;;9.25;6.75;;;;;;;26.24;42.19;99943.91;4260951;33;34733;-67
2023/05/27 03:28:29;;;;;;;8.95;5.85;;;;;;;26.23;42.20;99953.19;4260906;33;33876;-68
2023/05/27 03:30:56;;;;;;;8.15;5.57;;;;;;;26.24;42.17;99949.38;4260551;33;34879;-68
2023/05/27 03:33:25;;;;;;;7.87;6.37;;;;;;;26.24;42.18;99949.38;4247287;33;33284;-67
2023/05/27 03:35:52;;;;;;;6.85;5.65;;;;;;;26.24;42.19;99957.59;4260666;33;34077;-68
2023/05/27 03:38:20;;;;;;;8.68;6.10;;;;;;;26.23;42.15;99959.50;4260411;33;34875;-67
2023/05/27 03:40:47;;;;;;;10.98;6.43;;;;;;;26.24;42.17;99960.31;4260529;33;34101;-67
2023/05/27 03:43:15;;;;;;;7.90;5.80;;;;;;;26.23;42.17;99964.97;4260611;33;33639;-67
2023/05/27 03:45:43;;;;;;;8.93;6.10;;;;;;;26.23;42.14;99964.13;4260532;33;33862;-69
2023/05/27 03:48:11;;;;;;;9.75;6.10;;;;;;;26.23;42.18;99962.22;4260805;33;34897;-69
2023/05/27 03:50:39;;;;;;;7.85;6.50;;;;;;;26.23;42.14;99964.13;4260523;33;34132;-67
2023/05/27 03:53:08;;;;;;;;;;;;;;;26.23;42.14;99959.50;4261068;33;34313;-67
2023/05/27 03:55:36;;;;;;;8.20;5.68;;;;;;;26.34;41.97;99963.25;4260360;33;34913;-68
2023/05/27 03:58:04;;;;;;;8.05;5.93;;;;;;;26.26;42.09;99952.72;4260294;33;35016;-67
2023/05/27 04:00:33;;;;;;;8.75;6.37;;;;;;;26.23;42.14;99958.66;4247683;33;35050;-67
2023/05/27 04:03:00;;;;;;;8.77;6.87;;;;;;;26.24;42.14;99961.16;4246278;33;33323;-67
2023/05/27 04:05:28;;;;;;;8.45;6.47;;;;;;;26.23;42.03;99967.69;4246332;33;33906;-68
2023/05/27 04:07:56;;;;;;;7.80;6.30;;;;;;;26.22;41.91;99963.31;4246130;33;33771;-67
2023/05/27 04:10:24;;;;;;;8.82;6.45;;;;;;;26.22;41.89;99965.22;4246272;33;34115;-69
2023/05/27 04:12:51;;;;;;;9.80;6.62;;;;;;;26.21;41.92;99961.66;4246178;33;33833;-69
2023/05/27 04:15:19;;;;;;;8.57;6.93;;;;;;;26.21;41.90;99958.91;4246089;33;33454;-67
2023/05/27 04:17:47;;;;;;;9.25;6.75;;;;;;;26.20;41.89;99959.97;4246271;33;34812;-68
2023/05/27 04:20:14;;;;;;;8.65;6.37;;;;;;;26.20;41.88;99959.97;4246197;33;33907;-68
2023/05/27 04:22:43;;;;;;;8.40;6.97;;;;;;;26.20;41.88;99965.44;4246219;33;33279;-67
2023/05/27 04:25:11;;;;;;;8.57;6.85;;;;;;;26.19;41.88;99970.06;4244944;33;34726;-67
2023/05/27 04:27:40;;;;;;;9.40;7.12;;;;;;;26.19;41.85;99964.59;4246346;33;33060;-68
2023/05/27 04:30:09;;;;;;;8.38;6.60;;;;;;;26.18;41.82;99971.16;4233139;33;34180;-67
2023/05/27 04:32:37;;;;;;;7.85;6.65;;;;;;;26.18;41.81;99971.16;4246219;33;33760;-68
2023/05/27 04:35:09;;;;;;;8.27;7.00;;;;;;;26.18;41.82;99978.53;4246315;33;33946;-68
2023/05/27 04:37:37;;;;;;;9.40;6.65;;;;;;;26.18;41.78;99979.34;4245054;33;34824;-74
2023/05/27 04:40:07;;;;;;;9.85;6.68;;;;;;;26.17;41.79;99980.44;4244906;33;34208;-74
2023/05/27 04:42:38;;;;;;;9.65;6.80;;;;;;;26.17;41.79;99983.16;4246179;33;34328;-69
2023/05/27 04:45:08;;;;;;;8.55;6.50;;;;;;;26.16;41.77;99984.25;4253867;33;33542;-68
2023/05/27 04:47:37;;;;;;;9.50;6.53;;;;;;;26.18;41.76;99981.25;4257540;33;34697;-68
2023/05/27 04:50:07;;;;;;;9.40;6.70;;;;;;;26.18;41.74;99976.63;4246159;33;34961;-68
2023/05/27 04:52:40;;;;;;;10.13;6.60;;;;;;;26.17;41.77;99987.81;4254057;33;33580;-68
2023/05/27 04:55:09;;;;;;;9.25;6.85;;;;;;;26.17;41.77;99987.81;4260298;33;34097;-67
2023/05/27 04:57:40;;;;;;;11.98;7.70;;;;;;;26.16;41.76;99991.59;4260313;33;34894;-67
2023/05/27 05:02:39;;;;;;;8.02;6.53;;;;;;;26.16;41.76;99991.59;4260183;33;33670;-67
2023/05/27 05:05:09;;;;;;;9.75;7.12;;;;;;;26.17;41.74;99983.16;4250007;33;34671;-69
2023/05/27 05:07:41;;;;;;;8.38;6.75;;;;;;;26.15;41.75;99993.50;4246099;33;33899;-67
2023/05/27 05:10:09;;;;;;;9.68;6.60;;;;;;;26.16;41.73;99991.59;4245784;33;34223;-67
2023/05/27 05:12:37;;;;;;;9.55;6.78;;;;;;;26.15;41.74;99996.22;4244977;33;34392;-69
2023/05/27 05:15:06;;;;;;;10.85;7.47;;;;;;;26.16;41.73;100002.53;4244689;33;33992;-68
2023/05/27 05:17:34;;;;;;;8.95;6.65;;;;;;;26.16;41.73;100002.53;4245764;33;33887;-67
2023/05/27 05:20:03;;;;;;;8.63;6.82;;;;;;;26.17;41.72;100001.50;4245814;33;34391;-67
2023/05/27 05:22:31;;;;;;;12.43;7.50;;;;;;;26.16;41.70;99995.19;4245933;33;33157;-69
2023/05/27 05:24:59;;;;;;;10.13;6.90;;;;;;;26.16;41.67;100000.66;4244709;33;34789;-67
2023/05/27 05:27:27;;;;;;;9.55;6.80;;;;;;;26.17;41.69;100005.06;4245914;33;34024;-69
2023/05/27 05:29:55;;;;;;;10.98;7.12;;;;;;;26.15;41.68;100004.44;4233016;33;34815;-67
2023/05/27 05:32:22;;;;;;;8.75;6.50;;;;;;;26.15;41.67;100001.69;4245617;33;34516;-70
2023/05/27 05:34:50;;;;;;;9.63;6.57;;;;;;;26.17;41.63;100007.78;4245958;33;34906;-68
2023/05/27 05:37:18;;;;;;;8.88;6.93;;;;;;;26.16;41.59;100017.06;4251121;33;34487;-68
2023/05/27 05:39:46;;;;;;;8.82;6.75;;;;;;;26.17;41.47;100009.69;4272766;33;34255;-64
2023/05/27 05:42:14;;;;;;;11.30;7.05;;;;;;;26.17;41.47;100009.69;4259248;33;34383;-64
2023/05/27 05:44:49;;;;;;;8.88;6.62;;;;;;;26.16;41.43;100006.13;4245073;33;33459;-63
2023/05/27 05:47:17;;;;;;;8.32;6.53;;;;;;;26.16;41.41;100010.75;4245135;33;34843;-64
2023/05/27 05:49:47;;;;;;;;;;;;;;;26.16;41.41;100022.53;4245679;33;33889;-64
2023/05/27 05:52:14;;;;;;;9.70;5.90;;;;;;;26.26;41.21;100021.94;4243911;33;32585;-64
2023/05/27 05:54:42;;;;;;;8.73;6.28;;;;;;;26.19;41.35;100021.22;4247217;33;33740;-64
2023/05/27 05:57:10;;;;;;;9.00;6.45;;;;;;;26.17;41.40;100020.63;4257902;33;34368;-63
2023/05/27 05:59:37;;;;;;;12.43;6.93;;;;;;;26.16;41.45;100027.16;4259206;33;34854;-64
2023/05/27 06:02:05;;;;;;;8.82;6.18;;;;;;;26.16;41.44;100025.28;4259097;33;34452;-64
2023/05/27 06:04:33;;;;;;;9.43;7.28;;;;;;;26.15;41.45;100026.31;4259021;33;34801;-64
2023/05/27 06:07:01;;;;;;;8.75;7.03;;;;;;;26.17;41.46;100034.31;4258917;33;33702;-64
2023/05/27 06:09:35;;;;;;;8.57;6.40;;;;;;;26.16;41.44;100036.22;4258892;33;33709;-64
2023/05/27 06:12:03;;;;;;;12.93;6.85;;;;;;;26.16;41.44;100040.81;4257772;33;33282;-63
2023/05/27 06:14:32;;;;;;;9.60;6.65;;;;;;;26.16;41.43;100044.41;4259003;33;33910;-64
2023/05/27 06:17:00;;;;;;;9.63;6.55;;;;;;;26.17;41.44;100046.06;4257896;33;33905;-64
2023/05/27 06:19:28;;;;;;;9.38;6.22;;;;;;;26.17;41.44;100045.25;4256405;33;34097;-63
2023/05/27 06:21:56;;;;;;;8.65;6.68;;;;;;;26.17;41.42;100051.53;4250778;33;33344;-64
2023/05/27 06:24:25;;;;;;;8.15;5.97;;;;;;;26.17;41.43;100051.53;4262024;33;33910;-64
2023/05/27 06:26:54;;;;;;;8.27;6.32;;;;;;;26.17;41.43;100051.53;4258290;33;33930;-63
2023/05/27 06:29:21;;;;;;;8.43;5.75;;;;;;;26.17;41.43;100062.47;4258764;33;34149;-64
2023/05/27 06:31:49;;;;;;;8.95;6.47;;;;;;;26.18;41.43;100066.03;4252937;33;34415;-64
2023/05/27 06:34:17;;;;;;;8.02;6.05;;;;;;;26.18;41.42;100064.13;4243374;33;33791;-63
2023/05/27 06:36:48;;;;;;;8.43;6.37;;;;;;;26.18;41.41;100064.13;4244453;33;33911;-64
2023/05/27 06:39:16;;;;;;;7.53;5.78;;;;;;;26.19;41.38;100062.22;4243463;33;33838;-64
2023/05/27 06:41:44;;;;;;;8.35;6.45;;;;;;;26.19;41.39;100064.97;4254823;33;33979;-64
2023/05/27 06:44:13;;;;;;;8.52;6.45;;;;;;;26.19;41.38;100063.06;4258445;33;33824;-64
2023/05/27 06:46:41;;;;;;;7.55;5.53;;;;;;;26.20;41.34;100066.63;4258542;33;33656;-64
2023/05/27 06:49:10;;;;;;;8.02;6.10;;;;;;;26.19;41.35;100065.78;4258564;33;33778;-64
2023/05/27 06:51:38;;;;;;;8.50;5.75;;;;;;;26.20;41.33;100069.38;4258696;33;34496;-63
2023/05/27 06:54:06;;;;;;;10.88;5.82;;;;;;;26.19;41.36;100068.53;4258292;33;33848;-64
2023/05/27 06:56:34;;;;;;;8.30;5.75;;;;;;;26.18;41.33;100072.34;4258354;33;33859;-64
2023/05/27 06:59:03;;;;;;;7.60;5.82;;;;;;;26.19;41.33;100074.00;4258540;33;33976;-64
2023/05/27 07:01:31;;;;;;;8.85;5.72;;;;;;;26.19;41.29;100071.28;4245171;33;32699;-63
2023/05/27 07:04:00;;;;;;;8.73;5.93;;;;;;;26.19;41.28;100076.75;4245785;33;33981;-64
2023/05/27 07:06:29;;;;;;;8.60;6.18;;;;;;;26.20;41.26;100083.88;4258196;33;35298;-65
2023/05/27 07:08:57;;;;;;;9.25;5.53;;;;;;;26.19;41.26;100084.94;4247410;33;33857;-63
2023/05/27 07:11:26;;;;;;;11.48;6.70;;;;;;;26.21;41.24;100084.72;4260681;33;33556;-63
2023/05/27 07:13:55;;;;;;;11.53;6.53;;;;;;;26.23;41.24;100079.00;4260721;33;34211;-63
2023/05/27 07:16:23;;;;;;;14.57;5.95;;;;;;;26.23;41.22;100085.31;4260042;33;34614;-63
2023/05/27 07:18:51;;;;;;;12.55;6.70;;;;;;;26.23;41.25;100085.31;4247845;33;34100;-63
2023/05/27 07:21:19;;;;;;;14.35;5.87;;;;;;;26.23;41.24;100089.94;4248097;33;33415;-63
2023/05/27 07:23:46;;;;;;;13.20;5.85;;;;;;;26.23;41.22;100087.22;4260867;33;33837;-69
2023/05/27 07:26:16;;;;;;;13.75;5.70;;;;;;;26.22;41.25;100086.38;4260558;33;33939;-69
2023/05/27 07:28:44;;;;;;;16.33;6.85;;;;;;;26.25;41.24;100085.06;4260584;33;33911;-69
2023/05/27 07:31:13;;;;;;;12.15;5.75;;;;;;;26.23;41.24;100095.41;4248003;33;34262;-69
2023/05/27 07:33:42;;;;;;;12.43;5.97;;;;;;;26.24;41.04;100086.12;4260753;33;33866;-69
2023/05/27 07:36:10;;;;;;;13.95;5.85;;;;;;;26.22;40.89;100083.66;4260522;33;33995;-70
2023/05/27 07:38:38;;;;;;;12.80;5.97;;;;;;;26.20;40.33;100088.50;4235765;33;34335;-69
2023/05/27 07:41:06;;;;;;;9.98;5.93;;;;;;;26.18;39.62;100090.66;4260085;33;33679;-70
2023/05/27 07:43:34;;;;;;;10.63;5.87;;;;;;;26.15;39.49;100072.81;4260509;33;33894;-69
2023/05/27 07:46:02;;;;;;;12.05;6.12;;;;;;;26.14;39.40;100082.09;4246747;33;34218;-69
2023/05/27 07:48:31;;;;;;;7.90;5.80;;;;;;;26.13;39.44;100080.44;4259467;33;34073;-69
2023/05/27 07:50:58;;;;;;;11.98;6.18;;;;;;;26.13;39.26;100074.97;4247692;33;34372;-69
2023/05/27 07:53:26;;;;;;;10.98;5.68;;;;;;;26.13;39.25;100083.16;4259298;33;33247;-69
2023/05/27 07:55:54;;;;;;;9.32;5.25;;;;;;;26.14;39.51;100078.53;4260480;33;33826;-70
2023/05/27 07:58:22;;;;;;;10.02;5.60;;;;;;;26.13;39.16;100080.44;4259063;33;34092;-69
2023/05/27 08:00:53;;;;;;;8.63;5.62;;;;;;;26.13;39.22;100074.97;4259684;33;33146;-69
2023/05/27 08:03:21;;;;;;;9.77;5.50;;;;;;;26.13;39.00;100074.13;4260601;33;33884;-64
2023/05/27 08:05:50;;;;;;;8.88;5.80;;;;;;;26.13;38.74;100071.41;4259420;33;34439;-65
2023/05/27 08:08:18;;;;;;;9.02;5.37;;;;;;;26.13;38.10;100068.66;4259420;33;33695;-64
2023/05/27 08:10:46;;;;;;;8.77;5.53;;;;;;;26.13;37.53;100063.19;4259117;33;33191;-64
2023/05/27 08:13:15;;;;;;;8.13;5.85;;;;;;;26.11;37.78;100068.91;4258526;33;33658;-64
2023/05/27 08:15:43;;;;;;;8.68;5.37;;;;;;;26.13;38.07;100068.66;4259939;33;33578;-64
2023/05/27 08:18:11;;;;;;;11.40;5.20;;;;;;;26.13;38.05;100065.94;4259658;33;34511;-64
2023/05/27 08:20:39;;;;;;;12.93;5.90;;;;;;;26.11;37.84;100066.19;4259481;33;33721;-64
2023/05/27 08:23:07;;;;;;;11.52;5.37;;;;;;;26.12;37.51;100067.84;4259813;33;33964;-64
2023/05/27 08:25:36;;;;;;;7.25;4.70;;;;;;;26.13;37.63;100068.66;4260046;33;33945;-64
2023/05/27 08:28:04;;;;;;;10.75;5.53;;;;;;;26.13;37.60;100060.47;4260474;33;34884;-64
2023/05/27 08:30:32;;;;;;;8.77;5.28;;;;;;;26.13;37.47;100063.19;4260529;33;33765;-64
2023/05/27 08:33:00;;;;;;;8.85;5.18;;;;;;;26.12;37.31;100059.62;4258835;33;34071;-64
2023/05/27 08:35:29;;;;;;;7.40;5.20;;;;;;;26.13;37.30;100063.19;4260105;33;33992;-64
2023/05/27 08:37:56;;;;;;;9.68;5.10;;;;;;;26.13;37.34;100055.81;4259064;33;34436;-64
2023/05/27 08:40:27;;;;;;;9.95;5.65;;;;;;;26.13;37.48;100055.81;4256969;33;33592;-64
2023/05/27 08:42:55;;;;;;;11.18;5.53;;;;;;;26.13;37.46;100055.81;4245193;33;33493;-64
2023/05/27 08:45:23;;;;;;;6.60;4.85;;;;;;;26.14;37.37;100059.38;4245383;33;34881;-64
2023/05/27 08:47:52;;;;;;;9.50;5.22;;;;;;;26.14;37.41;100060.22;4245845;33;34206;-64
2023/05/27 08:50:21;;;;;;;12.05;5.57;;;;;;;26.13;37.14;100058.56;4233144;33;33589;-64
2023/05/27 08:52:55;;;;;;;7.10;5.35;;;;;;;26.15;37.26;100064.59;4246294;33;34501;-64
2023/05/27 08:55:23;;;;;;;8.45;5.25;;;;;;;26.15;37.43;100064.59;4245835;33;34338;-64
2023/05/27 08:57:54;;;;;;;8.73;5.35;;;;;;;26.15;37.59;100059.12;4242111;33;34064;-64
2023/05/27 09:00:22;;;;;;;8.75;5.60;;;;;;;26.16;37.91;100060.81;4246833;33;33986;-64
2023/05/27 09:02:50;;;;;;;8.73;5.22;;;;;;;26.18;38.23;100058.66;4247213;33;33867;-65
2023/05/27 09:05:19;;;;;;;12.48;5.53;;;;;;;26.19;38.42;100062.22;4250986;33;33906;-64
2023/05/27 09:07:46;;;;;;;9.43;5.03;;;;;;;26.18;38.59;100058.66;4252907;33;33721;-64
2023/05/27 09:10:15;;;;;;;10.07;5.40;;;;;;;26.19;38.73;100060.31;4259621;33;33589;-64
2023/05/27 09:12:47;;;;;;;11.75;5.05;;;;;;;26.20;38.86;100058.41;4259616;33;33780;-64
2023/05/27 09:15:14;;;;;;;8.70;4.97;;;;;;;26.19;38.97;100057.59;4245506;33;33483;-64
2023/05/27 09:17:42;;;;;;;9.30;5.30;;;;;;;26.21;39.05;100060.09;4249140;33;33848;-63
2023/05/27 09:20:13;;;;;;;8.65;5.53;;;;;;;26.22;39.11;100056.31;4266930;33;34401;-64
2023/05/27 09:22:41;;;;;;;8.40;5.47;;;;;;;26.20;39.17;100053.78;4254216;33;33795;-64
2023/05/27 09:25:08;;;;;;;11.05;5.87;;;;;;;26.22;39.09;100050.00;4258769;33;34751;-64
2023/05/27 09:27:38;;;;;;;10.63;5.65;;;;;;;26.23;38.68;100051.66;4252734;33;33822;-64
2023/05/27 09:30:07;;;;;;;11.10;5.10;;;;;;;26.24;38.20;100047.84;4239454;33;33150;-65
2023/05/27 09:32:35;;;;;;;9.75;5.43;;;;;;;26.24;38.42;100054.16;4242056;33;33881;-65
2023/05/27 09:35:07;;;;;;;10.25;5.12;;;;;;;26.24;38.54;100039.63;4256764;33;34012;-65
2023/05/27 09:37:35;;;;;;;9.75;5.75;;;;;;;26.25;38.61;100041.28;4255159;33;34177;-65
2023/05/27 09:40:08;;;;;;;11.45;5.62;;;;;;;26.24;38.71;100045.94;4266819;33;33647;-65
2023/05/27 09:42:46;;;;;;;9.75;5.15;;;;;;;26.26;38.92;100040.25;4273066;33;34615;-65
2023/05/27 09:45:17;;;;;;;8.88;5.25;;;;;;;26.27;39.06;100041.91;4244986;33;34001;-67
2023/05/27 09:47:49;;;;;;;8.80;5.12;;;;;;;26.27;39.17;100037.25;4245415;33;34062;-67
2023/05/27 09:50:17;;;;;;;9.70;5.28;;;;;;;26.27;39.08;100041.91;4235584;33;33644;-64
2023/05/27 09:52:46;;;;;;;14.10;5.32;;;;;;;26.27;38.81;100039.16;4272611;33;34881;-64
2023/05/27 09:55:31;;;;;;;10.65;5.53;;;;;;;26.28;38.71;100038.91;4271346;33;34195;-64
2023/05/27 09:57:58;;;;;;;10.13;4.95;;;;;;;26.30;38.76;100035.94;4258675;33;34031;-64
2023/05/27 10:00:27;;;;;;;9.20;5.25;;;;;;;26.28;38.74;100038.91;4258436;33;33632;-64
2023/05/27 10:02:57;;;;;;;12.25;5.18;;;;;;;26.27;38.77;100037.25;4259063;33;34935;-64
2023/05/27 10:05:25;;;;;;;10.20;4.78;;;;;;;26.29;38.82;100037.00;4257443;33;34835;-64
2023/05/27 10:07:53;;;;;;;9.38;5.72;;;;;;;26.29;38.89;100028.81;4242948;33;34304;-64
2023/05/27 10:10:40;;;;;;;11.88;5.25;;;;;;;26.31;38.95;100023.94;4244510;33;34453;-64
2023/05/27 10:13:08;;;;;;;9.60;5.03;;;;;;;26.30;39.04;100031.31;4244241;33;34719;-64
2023/05/27 10:15:38;;;;;;;7.95;5.32;;;;;;;26.29;39.16;100023.34;4231946;33;33772;-64
2023/05/27 10:18:29;;;;;;;8.48;4.70;;;;;;;26.31;39.25;100021.22;4240179;33;34094;-64
2023/05/27 10:20:57;;;;;;;8.20;4.82;;;;;;;26.34;39.34;100026.19;4244926;33;33699;-64
2023/05/27 10:23:28;;;;;;;10.65;5.93;;;;;;;26.33;39.41;100025.34;4244580;33;34025;-65
2023/05/27 10:26:05;;;;;;;7.32;4.62;;;;;;;26.33;39.50;100028.09;4244292;33;33890;-64
2023/05/27 10:28:39;;;;;;;9.55;5.10;;;;;;;26.33;39.60;100019.87;4243729;33;34097;-64
2023/05/27 10:31:08;;;;;;;10.32;4.97;;;;;;;26.32;39.72;100028.34;4244263;33;33733;-64
2023/05/27 10:33:40;;;;;;;10.13;5.10;;;;;;;26.33;39.74;100028.09;4244458;33;34649;-62
2023/05/27 10:36:14;;;;;;;12.85;5.62;;;;;;;26.31;39.93;100027.50;4243537;33;33782;-62
2023/05/27 10:38:42;;;;;;;8.25;4.80;;;;;;;26.33;40.14;100025.34;4243281;33;34016;-62
2023/05/27 10:41:10;;;;;;;11.07;4.40;;;;;;;26.34;40.24;100023.44;4244473;33;34459;-62
2023/05/27 10:43:37;;;;;;;11.70;5.47;;;;;;;26.33;40.36;100021.78;4244562;33;33697;-62
2023/05/27 10:46:08;;;;;;;8.98;5.10;;;;;;;26.34;40.41;100031.66;4258675;33;34943;-63
2023/05/27 10:48:38;;;;;;;8.68;5.20;;;;;;;26.35;40.52;100014.19;4260330;33;34841;-62
2023/05/27 10:51:06;;;;;;;9.75;5.12;;;;;;;26.36;40.60;100019.41;4260289;33;33822;-62
2023/05/27 10:53:37;;;;;;;11.43;5.80;;;;;;;26.37;40.63;100021.06;4260358;33;33868;-62
2023/05/27 10:56:05;;;;;;;9.27;5.15;;;;;;;26.36;40.68;100019.41;4247310;33;34748;-62
2023/05/27 10:58:36;;;;;;;8.80;5.30;;;;;;;26.36;40.75;100021.31;4259164;33;34101;-62
2023/05/27 11:01:10;;;;;;;10.77;5.30;;;;;;;26.39;40.80;100018.06;4259057;33;33723;-62
2023/05/27 11:03:44;;;;;;;9.20;5.57;;;;;;;26.39;40.84;100007.13;4258741;33;34008;-62
2023/05/27 11:06:13;;;;;;;10.73;5.53;;;;;;;26.40;40.90;100008.81;4260669;33;33750;-64
2023/05/27 11:08:40;;;;;;;12.82;4.97;;;;;;;26.41;40.96;100015.94;4260006;33;34988;-64
2023/05/27 11:11:09;;;;;;;10.40;4.43;;;;;;;26.38;40.97;100010.94;4260786;33;33715;-65
2023/05/27 11:13:39;;;;;;;10.80;4.87;;;;;;;26.37;40.89;100003.81;4259503;33;33834;-65
2023/05/27 11:16:07;;;;;;;8.57;4.75;;;;;;;26.37;40.83;100007.38;4260811;33;34028;-66
2023/05/27 11:18:35;;;;;;;9.68;5.12;;;;;;;26.39;40.79;100010.72;4259101;33;33845;-65
2023/05/27 11:21:04;;;;;;;9.15;5.22;;;;;;;26.38;40.81;100006.31;4260632;33;33364;-65
2023/05/27 11:23:42;;;;;;;7.30;4.85;;;;;;;26.37;40.81;100003.81;4260584;33;34636;-63
2023/05/27 11:26:11;;;;;;;8.77;4.87;;;;;;;26.39;40.77;100009.87;4260637;33;33876;-63
2023/05/27 11:28:47;;;;;;;13.25;5.53;;;;;;;26.38;40.67;100006.31;4260678;33;34097;-64
2023/05/27 11:31:15;;;;;;;16.15;5.78;;;;;;;26.39;40.67;100001.66;4259971;33;34190;-62
2023/05/27 11:33:43;;;;;;;9.65;5.32;;;;;;;26.40;40.55;99995.13;4261488;33;33554;-63
2023/05/27 11:36:12;;;;;;;11.32;5.00;;;;;;;26.39;40.46;99997.06;4246887;33;34029;-63